createdAt,value
2019-05-22T00:07:49.370Z,19.50
2019-05-22T00:17:54.858Z,19.50
2019-05-22T00:28:02.147Z,19.40
2019-05-22T00:38:09.555Z,19.30
2019-05-22T00:48:16.165Z,19.20
2019-05-22T00:58:29.930Z,19.10
2019-05-22T01:08:37.894Z,18.90
2019-05-22T01:18:45.232Z,18.70
2019-05-22T01:28:50.963Z,18.60
2019-05-22T01:39:03.151Z,18.50
2019-05-22T01:49:12.373Z,18.40
2019-05-22T01:59:19.503Z,18.30
2019-05-22T02:09:33.340Z,18.30
2019-05-22T02:19:39.161Z,18.20
2019-05-22T02:29:47.334Z,18.20
2019-05-22T02:39:53.809Z,18.20
2019-05-22T02:50:00.135Z,18.20
2019-05-22T03:00:06.591Z,18.10
2019-05-22T03:10:15.473Z,18.10
2019-05-22T03:20:24.019Z,18.10
2019-05-22T03:30:34.331Z,18.10
2019-05-22T03:40:40.617Z,18.00
2019-05-22T03:50:46.651Z,17.90
2019-05-22T04:00:53.026Z,17.90
2019-05-22T04:11:02.938Z,17.90
2019-05-22T04:21:09.319Z,17.80
2019-05-22T04:31:14.843Z,17.70
2019-05-22T04:41:21.917Z,17.80
2019-05-22T04:51:32.389Z,17.70
2019-05-22T05:01:37.791Z,17.60
2019-05-22T05:11:43.575Z,17.60
2019-05-22T05:21:49.278Z,17.60
2019-05-22T05:31:55.087Z,17.60
2019-05-22T05:42:00.715Z,17.60
2019-05-22T05:52:08.207Z,17.70
2019-05-22T06:02:13.906Z,17.60
2019-05-22T06:12:19.602Z,17.60
2019-05-22T06:22:25.338Z,17.60
2019-05-22T06:33:24.196Z,17.60
2019-05-22T06:44:41.298Z,17.70
2019-05-22T06:54:47.590Z,17.80
2019-05-22T07:04:53.080Z,17.90
2019-05-22T07:15:22.969Z,18.00
2019-05-22T07:25:29.673Z,17.90
2019-05-22T07:35:56.226Z,17.90
2019-05-22T07:45:42.864Z,18.00
2019-05-22T07:55:51.077Z,18.20
2019-05-22T08:05:58.633Z,18.30
2019-05-22T08:16:04.389Z,18.30
2019-05-22T08:26:11.482Z,18.40
2019-05-22T08:36:17.144Z,18.40
2019-05-22T08:46:22.973Z,18.40
2019-05-22T08:56:32.395Z,18.60
2019-05-22T09:06:38.376Z,18.70
2019-05-22T09:16:44.418Z,18.90
2019-05-22T09:26:50.375Z,19.00
2019-05-22T09:36:55.845Z,18.80
2019-05-22T09:47:01.184Z,18.80
2019-05-22T09:57:07.544Z,18.80
2019-05-22T10:07:13.027Z,18.70
2019-05-22T10:17:19.389Z,18.80
2019-05-22T10:27:26.535Z,18.90
2019-05-22T10:37:32.018Z,19.10
2019-05-22T10:47:37.449Z,19.40
2019-05-22T10:57:44.539Z,19.30
2019-05-22T11:07:51.479Z,19.60
2019-05-22T11:17:57.439Z,19.90
2019-05-22T11:28:03.434Z,20.00
2019-05-22T11:38:09.509Z,20.00
2019-05-22T11:48:14.907Z,20.10
2019-05-22T11:58:20.633Z,20.00
2019-05-22T12:08:26.141Z,20.10
2019-05-22T12:18:31.731Z,20.20
2019-05-22T12:28:37.700Z,20.00
2019-05-22T12:38:43.251Z,19.90
2019-05-22T12:48:48.768Z,20.10
2019-05-22T12:58:55.621Z,20.40
2019-05-22T13:09:01.580Z,20.80
2019-05-22T13:19:07.341Z,20.80
2019-05-22T13:29:14.598Z,20.50
2019-05-22T13:39:21.018Z,20.30
2019-05-22T13:49:28.806Z,20.10
2019-05-22T13:59:34.617Z,19.80
2019-05-22T14:09:40.723Z,19.40
2019-05-22T14:19:46.280Z,19.40
2019-05-22T14:29:52.146Z,19.10
2019-05-22T14:39:58.120Z,18.90
2019-05-22T14:50:03.546Z,18.80
2019-05-22T15:00:09.669Z,18.60
2019-05-22T15:10:16.930Z,18.60
2019-05-22T15:20:27.429Z,18.60
2019-05-22T15:30:33.213Z,18.60
2019-05-22T15:40:38.473Z,18.50
2019-05-22T15:50:44.703Z,18.40
2019-05-22T16:00:50.839Z,18.40
2019-05-22T16:11:00.262Z,18.40
2019-05-22T16:21:07.779Z,18.50
2019-05-22T16:31:13.436Z,18.50
2019-05-22T16:41:19.776Z,18.50
2019-05-22T16:51:27.278Z,18.50
2019-05-22T17:01:54.095Z,18.50
2019-05-22T17:11:42.038Z,18.60
2019-05-22T17:21:48.706Z,18.60
2019-05-22T17:31:54.798Z,18.60
2019-05-22T17:42:00.266Z,18.60
2019-05-22T17:52:06.674Z,18.60
2019-05-22T18:02:13.764Z,18.70
2019-05-22T18:12:20.549Z,18.70
2019-05-22T18:22:26.173Z,18.70
2019-05-22T18:32:35.032Z,18.60
2019-05-22T18:42:40.341Z,18.70
2019-05-22T18:52:49.098Z,18.60
2019-05-22T19:02:54.519Z,18.60
2019-05-22T19:13:00.017Z,18.50
2019-05-22T19:23:05.831Z,18.50
2019-05-22T19:33:14.840Z,18.30
2019-05-22T19:43:19.210Z,18.20
2019-05-22T19:53:24.992Z,18.00
2019-05-22T20:03:30.514Z,17.90
2019-05-22T20:13:37.100Z,17.70
2019-05-22T20:23:43.257Z,17.50
2019-05-22T20:33:48.800Z,17.30
2019-05-22T20:43:54.131Z,17.20
2019-05-22T20:53:59.955Z,17.10
2019-05-22T21:04:08.723Z,16.80
2019-05-22T21:14:14.614Z,16.70
2019-05-22T21:24:20.597Z,16.40
2019-05-22T21:34:26.831Z,16.20
2019-05-22T21:44:32.673Z,16.10
2019-05-22T21:54:38.266Z,16.00
2019-05-22T22:04:45.451Z,16.00
2019-05-22T22:14:51.193Z,16.00
2019-05-22T22:24:57.070Z,16.00
2019-05-22T22:35:04.209Z,15.90
2019-05-22T22:45:18.600Z,15.70
2019-05-22T22:55:26.915Z,15.60
2019-05-22T23:05:35.525Z,15.50
2019-05-22T23:15:41.581Z,15.30
2019-05-22T23:25:47.181Z,15.10
2019-05-22T23:35:53.401Z,14.90
2019-05-22T23:45:59.030Z,14.80
2019-05-22T23:56:06.820Z,14.50
